Time;durP1;ratioP1;P1;durP2;ratioP2;P2;SDS_P1;SDS_P2;PMS_P1;PMS_P2;Temp;Humidity;BMP_temperature;BMP_pressure;BME280_temperature;BME280_humidity;BME280_pressure;Samples;Min_cycle;Max_cycle;Signal;HPM_P1;HPM_P2
2023/03/19 00:00:53;;;;;;;3.45;3.15;;;;;;;19.94;46.22;96679.28;10394065;28;20104;-56
2023/03/19 00:06:18;;;;;;;4.30;3.25;;;;;;;19.93;46.19;96677.72;10393663;28;20064;-56
2023/03/19 00:11:37;;;;;;;5.07;3.53;;;;;;;19.92;46.18;96672.66;10380532;28;20072;-56
2023/03/19 00:16:57;;;;;;;3.92;3.25;;;;;;;19.90;46.18;96678.38;10379971;28;20057;-56
2023/03/19 00:22:17;;;;;;;3.53;3.22;;;;;;;19.89;46.19;96684.88;10393024;28;20050;-56
2023/03/19 00:27:37;;;;;;;4.22;3.20;;;;;;;19.89;46.21;96681.41;10378236;28;20046;-56
2023/03/19 00:32:56;;;;;;;4.25;3.38;;;;;;;19.88;46.19;96679.84;10392713;28;20057;-56
2023/03/19 00:38:16;;;;;;;4.35;3.20;;;;;;;19.86;46.05;96676.66;10392396;28;20045;-56
2023/03/19 00:43:36;;;;;;;3.60;3.03;;;;;;;19.84;45.98;96679.69;10380825;28;20058;-56
2023/03/19 00:48:57;;;;;;;4.10;3.40;;;;;;;19.83;46.06;96680.00;10392017;28;20490;-56
2023/03/19 00:54:16;;;;;;;3.53;3.20;;;;;;;19.81;46.12;96674.94;10391793;28;20048;-56
2023/03/19 00:59:36;;;;;;;3.30;3.00;;;;;;;19.79;46.06;96677.19;10391399;28;20383;-56
2023/03/19 01:04:55;;;;;;;3.20;2.92;;;;;;;19.78;46.13;96680.19;10391381;28;20053;-56
2023/03/19 01:10:20;;;;;;;5.03;3.15;;;;;;;19.77;45.88;96673.22;10363237;28;20042;-56
2023/03/19 01:15:42;;;;;;;5.63;3.22;;;;;;;19.74;45.91;96667.34;10376322;28;20042;-56
2023/03/19 01:21:02;;;;;;;3.50;3.20;;;;;;;19.74;45.84;96669.28;10390809;28;20096;-56
2023/03/19 01:26:23;;;;;;;3.30;2.95;;;;;;;19.72;45.76;96666.91;10375809;28;20037;-56
2023/03/19 01:31:47;;;;;;;3.40;3.10;;;;;;;19.70;45.67;96663.69;10375729;28;20046;-56
2023/03/19 01:37:28;;;;;;;2.80;2.50;;;;;;;19.70;45.67;96674.50;10390240;28;20049;-56
2023/03/19 01:42:53;;;;;;;3.20;2.67;;;;;;;19.69;45.72;96666.72;10380602;28;20054;-56
2023/03/19 01:48:46;;;;;;;3.13;2.53;;;;;;;19.67;45.78;96647.34;10317455;28;20108;-56
2023/03/19 01:54:12;;;;;;;3.55;3.00;;;;;;;19.65;45.55;96663.09;10361206;28;20042;-56
2023/03/19 01:59:48;;;;;;;3.67;3.28;;;;;;;19.64;45.30;96659.63;10362123;28;20069;-56
2023/03/19 02:05:27;;;;;;;3.25;2.78;;;;;;;19.61;45.30;96652.16;10388811;28;20042;-56
2023/03/19 02:10:54;;;;;;;2.92;2.63;;;;;;;19.61;45.24;96638.63;10361178;28;20049;-56
2023/03/19 02:16:14;;;;;;;3.00;2.63;;;;;;;19.60;45.26;96636.25;10388921;28;20046;-56
2023/03/19 02:21:35;;;;;;;3.80;2.95;;;;;;;19.56;45.15;96636.94;10373803;28;20046;-56
2023/03/19 02:26:55;;;;;;;3.22;2.80;;;;;;;19.56;45.09;96641.53;10373739;28;20045;-56
2023/03/19 02:32:15;;;;;;;2.88;2.63;;;;;;;19.54;45.02;96652.69;10373431;28;20210;-56
2023/03/19 02:37:35;;;;;;;3.17;2.60;;;;;;;19.53;45.07;96651.09;10387816;28;20501;-56
2023/03/19 02:42:54;;;;;;;3.58;2.85;;;;;;;19.52;45.01;96651.41;10374443;28;20084;-56
2023/03/19 02:48:16;;;;;;;3.20;2.90;;;;;;;19.51;45.11;96669.53;10373118;28;20049;-56
2023/03/19 02:53:35;;;;;;;3.05;2.60;;;;;;;19.50;45.13;96664.44;10387705;28;20104;-56
2023/03/19 02:58:55;;;;;;;2.75;2.50;;;;;;;19.49;44.89;96657.47;10387854;28;20073;-56
2023/03/19 03:04:15;;;;;;;2.58;2.25;;;;;;;19.47;45.08;96665.91;10374024;28;20049;-56
2023/03/19 03:09:35;;;;;;;3.00;2.63;;;;;;;19.44;44.98;96663.84;10396125;28;20405;-56
2023/03/19 03:14:54;;;;;;;2.75;2.42;;;;;;;19.44;44.94;96654.94;10395582;28;20038;-56
2023/03/19 03:20:16;;;;;;;2.80;2.50;;;;;;;19.42;45.03;96665.28;10367726;28;20050;-56
2023/03/19 03:25:36;;;;;;;2.80;2.50;;;;;;;19.40;44.95;96673.72;10395454;28;20050;-56
2023/03/19 03:30:59;;;;;;;2.90;2.60;;;;;;;19.41;45.07;96667.22;10395338;28;20057;-56
2023/03/19 03:36:18;;;;;;;5.45;2.80;;;;;;;19.38;44.89;96661.66;10395062;28;20042;-56
2023/03/19 03:41:37;;;;;;;2.78;2.50;;;;;;;19.37;44.91;96666.28;10388591;28;20516;-56
2023/03/19 03:46:57;;;;;;;3.33;2.70;;;;;;;19.35;45.01;96672.00;10379982;28;20037;-56
2023/03/19 03:52:16;;;;;;;3.53;2.55;;;;;;;19.34;44.93;96669.63;10394283;28;20038;-56
2023/03/19 03:57:36;;;;;;;3.22;2.63;;;;;;;19.32;44.91;96666.44;10379399;28;20053;-56
2023/03/19 04:02:56;;;;;;;2.60;2.40;;;;;;;19.32;44.86;96674.56;10393703;28;20041;-56
2023/03/19 04:08:16;;;;;;;3.78;2.72;;;;;;;19.30;44.93;96679.50;10393815;28;20493;-56
2023/03/19 04:13:36;;;;;;;2.78;2.38;;;;;;;19.28;44.95;96674.41;10393782;28;20046;-56
2023/03/19 04:18:56;;;;;;;3.78;2.65;;;;;;;19.28;44.86;96668.22;10363962;28;20041;-56
2023/03/19 04:24:16;;;;;;;2.67;2.30;;;;;;;19.25;44.91;96680.47;10393021;28;20042;-56
2023/03/19 04:29:36;;;;;;;2.50;2.30;;;;;;;19.24;44.76;96684.28;10378222;28;20069;-56
2023/03/19 04:34:57;;;;;;;2.33;2.08;;;;;;;19.23;44.85;96682.72;10364829;28;20053;-56
2023/03/19 04:40:17;;;;;;;2.42;2.22;;;;;;;19.22;44.91;96688.44;10390180;28;20107;-56
2023/03/19 04:45:37;;;;;;;2.85;2.50;;;;;;;19.23;44.42;96693.50;10377667;28;20045;-56
2023/03/19 04:50:57;;;;;;;2.50;2.30;;;;;;;19.22;43.94;96694.63;10376948;28;20383;-56
2023/03/19 04:56:17;;;;;;;2.72;2.45;;;;;;;19.20;44.42;96687.97;10377039;28;20037;-56
2023/03/19 05:01:37;;;;;;;3.30;2.50;;;;;;;19.16;44.38;96694.00;10363289;28;20045;-56
2023/03/19 05:07:00;;;;;;;3.17;2.88;;;;;;;19.15;44.21;96695.13;10391883;28;20095;-56
2023/03/19 05:12:21;;;;;;;2.88;2.63;;;;;;;19.12;44.18;96690.38;10376358;28;20045;-56
2023/03/19 05:17:43;;;;;;;3.45;2.88;;;;;;;19.12;44.06;96689.59;10376235;28;20045;-56
2023/03/19 05:23:14;;;;;;;3.28;2.97;;;;;;;19.10;44.01;96692.59;10363000;28;20057;-56
2023/03/19 05:28:49;;;;;;;3.42;2.75;;;;;;;19.08;44.01;96689.44;10391998;22;20120;-73
2023/03/19 05:34:12;;;;;;;3.15;2.83;;;;;;;19.07;44.15;96698.66;10348398;28;20049;-74
2023/03/19 05:39:32;;;;;;;3.42;2.70;;;;;;;19.06;44.17;96705.16;10361222;28;20113;-73
2023/03/19 05:44:56;;;;;;;3.28;2.75;;;;;;;19.05;44.20;96711.69;10362074;28;20046;-73
2023/03/19 05:50:18;;;;;;;3.05;2.78;;;;;;;19.03;44.17;96695.00;10374964;28;20049;-73
2023/03/19 05:55:58;;;;;;;3.00;2.72;;;;;;;19.03;44.50;96710.41;10363934;28;20042;-73
2023/03/19 06:01:21;;;;;;;3.17;2.88;;;;;;;19.03;44.80;96719.28;10373907;28;20053;-73
2023/03/19 06:06:41;;;;;;;3.20;2.90;;;;;;;19.02;44.94;96715.03;10360186;28;20041;-73
2023/03/19 06:12:02;;;;;;;3.55;2.90;;;;;;;19.01;45.01;96729.63;10359967;28;20482;-73
2023/03/19 06:17:38;;;;;;;3.67;2.75;;;;;;;19.00;45.09;96722.66;10388205;28;20038;-72
2023/03/19 06:23:01;;;;;;;3.03;2.55;;;;;;;18.99;45.15;96726.47;10360099;28;20104;-73
2023/03/19 06:28:21;;;;;;;3.05;2.75;;;;;;;18.99;45.32;96736.47;10362710;28;20057;-73
2023/03/19 06:33:41;;;;;;;3.70;2.38;;;;;;;18.98;45.50;96732.97;10345900;28;20050;-74
2023/03/19 06:39:02;;;;;;;2.83;2.58;;;;;;;18.97;45.38;96742.19;10359018;28;20041;-73
2023/03/19 06:44:23;;;;;;;3.78;2.50;;;;;;;18.96;45.68;96727.13;10373876;28;20038;-75
2023/03/19 06:49:43;;;;;;;2.83;2.63;;;;;;;18.96;45.65;96727.13;10359794;28;20049;-75
2023/03/19 06:55:04;;;;;;;6.05;2.67;;;;;;;18.96;45.86;96740.63;10373248;28;20038;-75
2023/03/19 07:00:24;;;;;;;2.90;2.58;;;;;;;18.96;45.61;96732.50;10359562;28;20042;-75
2023/03/19 07:05:43;;;;;;;2.95;2.67;;;;;;;18.96;45.77;96760.28;10387798;28;20046;-75
2023/03/19 07:11:04;;;;;;;4.75;2.65;;;;;;;18.98;45.38;96768.06;10359207;28;20057;-75
2023/03/19 07:16:24;;;;;;;3.10;2.80;;;;;;;18.97;45.34;96777.28;10358969;28;20052;-74
2023/03/19 07:21:44;;;;;;;3.20;2.90;;;;;;;18.98;45.18;96786.19;10358696;28;20046;-75
2023/03/19 07:27:04;;;;;;;4.40;2.88;;;;;;;18.99;44.99;96774.25;10352539;28;20057;-75
2023/03/19 07:32:24;;;;;;;3.92;3.47;;;;;;;19.01;44.34;96788.22;10372780;28;20046;-75
2023/03/19 07:37:44;;;;;;;4.35;3.92;;;;;;;18.97;42.47;96790.78;10358756;28;20093;-74
2023/03/19 07:43:04;;;;;;;4.78;4.28;;;;;;;19.01;43.84;96785.53;10358949;28;20443;-74
2023/03/19 07:48:23;;;;;;;6.00;4.60;;;;;;;19.01;43.74;96783.63;10372459;28;20161;-74
2023/03/19 07:53:43;;;;;;;5.13;4.47;;;;;;;19.05;43.76;96783.78;10378218;28;20096;-74
2023/03/19 07:59:03;;;;;;;5.40;4.63;;;;;;;19.09;43.83;96814.41;10379549;28;20537;-74
2023/03/19 08:04:22;;;;;;;4.85;4.30;;;;;;;19.10;43.92;96805.22;10379471;28;20048;-73
2023/03/19 08:09:43;;;;;;;5.80;4.30;;;;;;;19.14;43.95;96812.34;10393427;28;20049;-71
2023/03/19 08:15:03;;;;;;;5.28;4.35;;;;;;;19.17;44.15;96817.13;10364659;28;20041;-71
2023/03/19 08:20:22;;;;;;;7.00;4.10;;;;;;;19.21;44.37;96802.97;10378012;28;20406;-74
2023/03/19 08:25:42;;;;;;;5.22;4.25;;;;;;;19.26;44.04;96794.69;10364078;28;20521;-73
2023/03/19 08:31:09;;;;;;;5.63;4.60;;;;;;;19.28;43.98;96795.94;10377558;28;20513;-73
2023/03/19 08:36:29;;;;;;;5.45;3.97;;;;;;;19.33;44.22;96789.59;10377408;28;20042;-73
2023/03/19 08:41:49;;;;;;;7.18;4.60;;;;;;;19.36;44.29;96794.34;10364001;28;20045;-75
2023/03/19 08:47:08;;;;;;;5.40;4.40;;;;;;;19.40;44.10;96797.19;10391887;28;20505;-75
2023/03/19 08:52:28;;;;;;;4.30;3.80;;;;;;;19.43;44.29;96799.25;10376863;28;20042;-76
2023/03/19 08:57:48;;;;;;;6.68;4.07;;;;;;;19.45;44.65;96792.41;10377164;28;20489;-76
2023/03/19 09:03:08;;;;;;;5.53;4.45;;;;;;;19.48;44.22;96794.47;10376864;28;20046;-76
2023/03/19 09:08:28;;;;;;;6.75;4.30;;;;;;;19.51;44.25;96801.94;10376661;28;20053;-76
2023/03/19 09:13:48;;;;;;;5.93;4.20;;;;;;;19.53;44.27;96801.59;10349647;28;20430;-76
2023/03/19 09:19:08;;;;;;;6.38;4.20;;;;;;;19.55;44.42;96793.97;10375775;28;20046;-77
2023/03/19 09:24:28;;;;;;;6.55;4.30;;;;;;;19.58;44.41;96787.13;10375765;28;20041;-72
2023/03/19 09:29:48;;;;;;;5.15;3.90;;;;;;;19.59;44.57;96792.19;10375381;28;20052;-73
2023/03/19 09:35:07;;;;;;;6.20;4.13;;;;;;;19.62;44.65;96793.44;10374937;28;20045;-72
2023/03/19 09:40:33;;;;;;;4.75;4.05;;;;;;;19.63;44.70;96795.84;10374747;28;20038;-73
2023/03/19 09:45:53;;;;;;;5.00;3.70;;;;;;;19.67;44.86;96796.78;10361040;28;20042;-72
2023/03/19 09:51:19;;;;;;;5.68;4.28;;;;;;;19.69;44.64;96796.44;10360568;28;20050;-72
2023/03/19 09:56:39;;;;;;;4.88;3.70;;;;;;;19.74;44.69;96796.31;10389101;28;20054;-72
2023/03/19 10:02:03;;;;;;;5.75;3.83;;;;;;;19.77;44.87;96798.34;10373827;28;20046;-73
2023/03/19 10:07:35;;;;;;;4.75;3.85;;;;;;;19.81;44.74;96798.50;10389186;28;20125;-73
2023/03/19 10:13:00;;;;;;;8.25;3.40;;;;;;;19.86;44.95;96799.09;10387911;28;20042;-73
2023/03/19 10:18:25;;;;;;;4.38;3.40;;;;;;;19.88;45.12;96796.88;10360515;28;20137;-73
2023/03/19 10:23:49;;;;;;;4.65;3.65;;;;;;;19.91;45.16;96782.69;10360314;28;20052;-72
2023/03/19 10:29:09;;;;;;;4.95;3.50;;;;;;;19.95;45.34;96780.94;10360788;28;20494;-72
2023/03/19 10:34:33;;;;;;;4.65;3.10;;;;;;;19.98;45.66;96770.59;10359397;28;20045;-72
2023/03/19 10:39:58;;;;;;;6.50;3.72;;;;;;;20.01;45.70;96784.22;10387902;28;20072;-72
2023/03/19 10:45:31;;;;;;;6.30;3.85;;;;;;;20.04;45.80;96770.06;10373009;28;20049;-73
2023/03/19 10:50:57;;;;;;;9.57;4.10;;;;;;;20.05;46.00;96765.44;10372834;28;20049;-71
2023/03/19 10:56:23;;;;;;;6.10;3.63;;;;;;;20.07;46.40;96764.00;10372694;28;20064;-73
2023/03/19 11:01:43;;;;;;;4.97;3.88;;;;;;;20.08;46.43;96760.16;10359150;28;20046;-72
2023/03/19 11:07:08;;;;;;;5.00;3.95;;;;;;;20.11;46.67;96772.22;10387046;28;20042;-73
2023/03/19 11:12:33;;;;;;;15.93;6.45;;;;;;;20.11;45.28;96764.13;10358511;28;20120;-72
2023/03/19 11:18:14;;;;;;;13.35;8.57;;;;;;;20.10;45.78;96751.72;10372185;28;20486;-73
2023/03/19 11:23:39;;;;;;;13.50;11.50;;;;;;;20.12;44.29;96749.47;10358335;28;20038;-72
2023/03/19 11:29:03;;;;;;;30.33;22.45;;;;;;;20.14;42.44;96758.06;10380116;28;20054;-72
2023/03/19 11:34:22;;;;;;;25.23;15.32;;;;;;;20.13;42.01;96759.16;10379896;28;20046;-73
2023/03/19 11:39:55;;;;;;;22.65;14.60;;;;;;;20.12;40.26;96755.69;10365673;28;20042;-72
2023/03/19 11:45:32;;;;;;;17.50;11.77;;;;;;;20.10;40.29;96747.09;10379515;28;20052;-73
2023/03/19 11:50:59;;;;;;;16.23;10.50;;;;;;;20.09;40.45;96748.25;10365335;28;20573;-73
2023/03/19 11:56:34;;;;;;;18.73;9.93;;;;;;;20.08;41.57;96738.53;10365597;28;20096;-73
2023/03/19 12:02:01;;;;;;;14.73;9.27;;;;;;;20.06;41.86;96740.00;10351548;28;20502;-73
2023/03/19 12:07:45;;;;;;;11.90;8.48;;;;;;;20.06;41.98;96734.59;10393347;28;20075;-74
2023/03/19 12:13:23;;;;;;;13.07;8.80;;;;;;;20.07;41.83;96730.75;10393219;28;20050;-74
2023/03/19 12:18:49;;;;;;;12.88;7.82;;;;;;;20.05;41.22;96730.28;10392822;28;20120;-73
2023/03/19 12:24:17;;;;;;;9.57;7.10;;;;;;;19.97;36.88;96728.44;10379242;28;20441;-72
2023/03/19 12:29:43;;;;;;;;;;;;;;;19.95;38.83;96726.84;10378267;28;20045;-72
2023/03/19 12:35:21;;;;;;;9.85;6.63;;;;;;;19.97;40.06;96721.09;10392603;28;19922;-73
2023/03/19 12:40:42;;;;;;;8.63;6.82;;;;;;;19.98;39.83;96719.22;10392685;28;20042;-76
2023/03/19 12:46:05;;;;;;;9.50;7.03;;;;;;;19.99;39.75;96723.47;10363978;28;20041;-72
2023/03/19 12:51:30;;;;;;;8.82;6.13;;;;;;;19.98;39.99;96720.00;10392221;28;20103;-73
2023/03/19 12:56:58;;;;;;;8.10;5.65;;;;;;;19.97;40.23;96710.28;10363078;28;20513;-73
2023/03/19 13:02:29;;;;;;;9.07;5.82;;;;;;;19.98;40.25;96708.41;10376736;28;20042;-73
2023/03/19 13:08:22;;;;;;;8.30;5.60;;;;;;;19.98;40.08;96719.22;10376506;28;20053;-73
2023/03/19 13:13:52;;;;;;;8.90;5.78;;;;;;;19.98;40.25;96724.63;10362511;28;20412;-73
2023/03/19 13:19:36;;;;;;;10.13;6.40;;;;;;;19.95;40.14;96718.75;10390986;28;20042;-75
2023/03/19 13:24:57;;;;;;;8.32;6.55;;;;;;;19.94;36.70;96724.47;10389609;28;20556;-74
2023/03/19 13:30:18;;;;;;;10.02;5.70;;;;;;;19.93;38.87;96717.47;10362509;28;20140;-74
2023/03/19 13:35:48;;;;;;;8.18;6.03;;;;;;;19.93;38.91;96722.88;10376446;28;20092;-77
2023/03/19 13:41:43;;;;;;;7.93;5.35;;;;;;;19.91;38.20;96720.50;10374860;28;20100;-75
2023/03/19 13:47:43;;;;;;;8.30;5.47;;;;;;;19.91;38.54;96720.50;10296632;28;20058;-75
2023/03/19 13:53:20;;;;;;;6.22;4.95;;;;;;;19.91;38.55;96722.41;10389285;28;20038;-75
2023/03/19 13:58:51;;;;;;;7.35;5.55;;;;;;;19.91;38.69;96712.38;10389037;28;20410;-75
2023/03/19 14:04:31;;;;;;;8.00;5.63;;;;;;;19.90;38.45;96710.81;10360943;28;20076;-75
2023/03/19 14:09:57;;;;;;;10.05;5.43;;;;;;;19.89;39.04;96709.22;10360605;28;20041;-75
2023/03/19 14:15:21;;;;;;;5.57;4.95;;;;;;;19.89;39.13;96706.50;10388822;28;20042;-75
2023/03/19 14:20:48;;;;;;;6.22;5.40;;;;;;;19.89;39.34;96714.63;10373920;28;20045;-76
2023/03/19 14:26:21;;;;;;;7.25;5.20;;;;;;;19.90;39.84;96726.25;10369683;28;20050;-74
2023/03/19 14:31:57;;;;;;;6.32;5.05;;;;;;;19.90;40.20;96720.84;10373806;28;20046;-75
2023/03/19 14:37:20;;;;;;;6.25;5.30;;;;;;;19.88;40.20;96718.47;10359354;28;20049;-75
2023/03/19 14:43:14;;;;;;;5.80;4.63;;;;;;;19.87;40.57;96722.28;10372862;28;20053;-75
2023/03/19 14:48:37;;;;;;;4.80;4.35;;;;;;;19.87;40.64;96721.50;10387709;28;20042;-75
2023/03/19 14:54:19;;;;;;;5.63;4.65;;;;;;;19.85;40.84;96719.09;10359206;28;20049;-75
2023/03/19 14:59:39;;;;;;;5.55;4.57;;;;;;;19.85;40.94;96713.69;10362402;28;20042;-75
2023/03/19 15:05:00;;;;;;;5.68;4.43;;;;;;;19.85;41.09;96713.69;10401021;28;20049;-74
2023/03/19 15:10:22;;;;;;;4.68;4.00;;;;;;;19.84;41.13;96714.84;10385958;28;20046;-75
2023/03/19 15:16:00;;;;;;;5.57;4.38;;;;;;;19.83;41.44;96704.34;10385990;28;20046;-75
2023/03/19 15:21:20;;;;;;;5.87;4.47;;;;;;;19.83;41.45;96702.44;10372492;28;20449;-75
2023/03/19 15:26:40;;;;;;;6.03;4.50;;;;;;;19.81;41.37;96691.16;10379894;28;20061;-76
2023/03/19 15:32:00;;;;;;;4.82;4.32;;;;;;;19.82;41.55;96692.75;10400497;28;20045;-75
2023/03/19 15:37:19;;;;;;;4.72;4.22;;;;;;;19.79;41.57;96692.59;10385500;28;20042;-75
2023/03/19 15:42:41;;;;;;;4.57;4.13;;;;;;;19.78;41.55;96697.22;10385315;28;20110;-75
2023/03/19 15:48:15;;;;;;;6.28;4.63;;;;;;;19.77;41.84;96703.75;10385807;28;20049;-75
2023/03/19 15:53:36;;;;;;;6.25;4.60;;;;;;;19.77;42.22;96702.97;10385279;28;20057;-75
2023/03/19 15:58:56;;;;;;;6.70;4.40;;;;;;;19.76;42.37;96707.59;10385186;28;20116;-75
2023/03/19 16:04:21;;;;;;;4.88;4.15;;;;;;;19.76;42.70;96713.00;10385086;28;20041;-75
2023/03/19 16:09:40;;;;;;;7.75;4.80;;;;;;;19.75;43.16;96720.28;10371265;28;20046;-74
2023/03/19 16:15:00;;;;;;;10.18;6.38;;;;;;;19.76;44.26;96734.59;10377659;28;20038;-75
2023/03/19 16:20:19;;;;;;;14.63;6.57;;;;;;;19.75;44.89;96735.72;10364448;28;20042;-75
2023/03/19 16:25:43;;;;;;;13.07;7.88;;;;;;;19.75;45.48;96746.53;10361379;28;20097;-74
2023/03/19 16:31:03;;;;;;;18.30;9.02;;;;;;;19.76;46.23;96748.13;10392754;28;20045;-75
2023/03/19 16:36:27;;;;;;;22.55;11.05;;;;;;;19.77;46.65;96757.00;10377506;28;20038;-75
2023/03/19 16:42:35;;;;;;;23.70;10.73;;;;;;;19.77;47.21;96754.31;10377099;28;20045;-74
2023/03/19 16:47:57;;;;;;;32.10;13.88;;;;;;;19.77;47.59;96776.72;10373566;28;20062;-74
2023/03/19 16:53:25;;;;;;;34.47;14.52;;;;;;;19.78;48.25;96785.63;10376721;28;20046;-73
2023/03/19 16:58:45;;;;;;;31.47;13.23;;;;;;;19.78;48.20;96791.84;10377228;28;20099;-72
2023/03/19 17:04:11;;;;;;;43.65;18.73;;;;;;;19.78;48.76;96791.03;10376443;28;20038;-72
2023/03/19 17:09:30;;;;;;;57.22;19.10;;;;;;;19.78;48.94;96799.94;10376667;28;20045;-73
2023/03/19 17:14:51;;;;;;;51.88;22.13;;;;;;;19.77;49.85;96803.75;10332964;28;20065;-74
2023/03/19 17:20:20;;;;;;;60.45;22.70;;;;;;;19.78;50.98;96810.75;10375752;28;20041;-73
2023/03/19 17:25:39;;;;;;;50.35;18.75;;;;;;;19.78;51.01;96821.56;10385779;28;20061;-74
2023/03/19 17:30:59;;;;;;;42.25;16.83;;;;;;;19.77;50.43;96814.56;10348475;28;20046;-74
2023/03/19 17:36:19;;;;;;;44.17;17.02;;;;;;;19.75;49.95;96817.59;10375391;28;20049;-74
2023/03/19 17:41:38;;;;;;;39.60;15.73;;;;;;;19.75;49.60;96819.50;10374861;28;20038;-74
2023/03/19 17:46:58;;;;;;;42.78;16.33;;;;;;;19.74;49.10;96821.41;10361154;28;20041;-72
2023/03/19 17:52:18;;;;;;;36.42;14.35;;;;;;;19.73;48.73;96816.34;10374645;28;20045;-73
2023/03/19 17:57:38;;;;;;;32.63;14.77;;;;;;;19.72;48.78;96820.16;10374479;28;20060;-74
2023/03/19 18:02:58;;;;;;;34.00;13.57;;;;;;;19.71;48.80;96829.34;10389114;28;20500;-75
2023/03/19 18:08:19;;;;;;;30.73;13.52;;;;;;;19.70;48.67;96831.28;10360682;28;20038;-74
2023/03/19 18:13:40;;;;;;;28.85;12.60;;;;;;;19.68;48.35;96830.81;10360480;28;20433;-75
2023/03/19 18:19:03;;;;;;;32.60;13.07;;;;;;;19.68;48.40;96830.81;10388907;28;20041;-74
2023/03/19 18:24:22;;;;;;;29.50;12.45;;;;;;;19.68;48.20;96827.28;10360411;28;20049;-75
2023/03/19 18:29:41;;;;;;;31.40;12.25;;;;;;;19.66;47.78;96826.81;10374285;28;20092;-83
2023/03/19 18:35:02;;;;;;;22.58;10.98;;;;;;;19.66;47.67;96824.13;10360566;28;20065;-82
2023/03/19 18:40:25;;;;;;;25.92;11.68;;;;;;;19.65;47.66;96830.66;10374683;28;20042;-80
2023/03/19 18:45:48;;;;;;;26.88;11.35;;;;;;;19.64;47.74;96837.16;10360638;28;20088;-81
2023/03/19 18:51:10;;;;;;;22.88;10.43;;;;;;;19.62;47.57;96834.00;10373869;28;20176;-78
2023/03/19 18:56:34;;;;;;;23.65;11.00;;;;;;;19.61;47.74;96835.91;10359947;28;20050;-77
2023/03/19 19:01:58;;;;;;;20.00;9.82;;;;;;;19.63;48.30;96835.59;10373915;28;20531;-78
2023/03/19 19:07:17;;;;;;;22.85;10.38;;;;;;;19.61;48.13;96843.22;10359637;28;20449;-78
2023/03/19 19:12:40;;;;;;;22.13;10.13;;;;;;;19.62;48.30;96836.69;10346220;28;20042;-81
2023/03/19 19:18:06;;;;;;;22.77;11.07;;;;;;;19.59;48.15;96840.06;10360116;28;20037;-76
2023/03/19 19:23:27;;;;;;;24.42;10.32;;;;;;;19.59;48.08;96837.34;10372643;28;20042;-78
2023/03/19 19:28:46;;;;;;;19.70;9.80;;;;;;;19.57;47.91;96826.88;10361190;28;20502;-79
2023/03/19 19:34:08;;;;;;;22.05;10.45;;;;;;;19.56;48.04;96836.06;10359139;28;20082;-79
2023/03/19 19:39:28;;;;;;;22.63;10.48;;;;;;;19.54;47.71;96833.72;10372884;28;20042;-83
2023/03/19 19:44:51;;;;;;;21.00;9.80;;;;;;;19.54;48.03;96825.59;10359083;28;20046;-75
2023/03/19 19:50:17;;;;;;;18.40;9.93;;;;;;;19.53;47.76;96824.00;10379691;28;20042;-75
2023/03/19 19:55:37;;;;;;;23.75;10.30;;;;;;;19.52;47.87;96818.91;10366167;28;20053;-75
2023/03/19 20:01:00;;;;;;;17.98;9.13;;;;;;;19.51;47.94;96828.16;10365894;28;20050;-74
2023/03/19 20:06:20;;;;;;;19.73;9.43;;;;;;;19.51;47.86;96830.84;10395025;28;20050;-75
2023/03/19 20:11:40;;;;;;;17.10;9.50;;;;;;;19.51;48.02;96830.84;10365433;28;20048;-73
2023/03/19 20:17:00;;;;;;;16.20;9.30;;;;;;;19.50;47.90;96838.19;10378879;28;20401;-73
2023/03/19 20:22:19;;;;;;;15.77;9.13;;;;;;;19.49;47.93;96835.78;10378919;28;20042;-73
2023/03/19 20:27:39;;;;;;;17.40;9.10;;;;;;;19.50;47.86;96849.00;10337537;28;20073;-73
2023/03/19 20:33:03;;;;;;;15.57;8.90;;;;;;;19.50;47.95;96848.16;10377796;28;20436;-73
2023/03/19 20:38:22;;;;;;;17.35;8.88;;;;;;;19.50;47.87;96845.47;10363912;28;20421;-73
2023/03/19 20:43:42;;;;;;;15.25;8.50;;;;;;;19.52;47.88;96851.34;10363839;28;20042;-73
2023/03/19 20:49:02;;;;;;;18.30;9.13;;;;;;;19.51;48.00;96845.16;10363677;28;20049;-73
2023/03/19 20:54:22;;;;;;;18.30;8.77;;;;;;;19.54;48.13;96859.91;10391848;28;20046;-73
2023/03/19 20:59:44;;;;;;;14.75;8.43;;;;;;;19.55;47.97;96873.13;10376533;28;20049;-73
2023/03/19 21:05:06;;;;;;;16.20;8.38;;;;;;;19.55;47.98;96881.22;10376583;28;20549;-73
2023/03/19 21:10:30;;;;;;;16.35;8.52;;;;;;;19.57;48.03;96886.31;10391307;28;20564;-73
2023/03/19 21:15:50;;;;;;;16.05;8.18;;;;;;;19.59;48.15;96884.06;10376068;28;20050;-73
2023/03/19 21:21:12;;;;;;;12.35;7.85;;;;;;;19.60;48.11;96882.16;10375861;28;20044;-73
2023/03/19 21:26:34;;;;;;;14.57;8.43;;;;;;;19.61;48.07;96878.34;10362145;28;20053;-73
2023/03/19 21:31:55;;;;;;;12.85;7.53;;;;;;;19.61;48.13;96876.44;10361948;28;20490;-73
2023/03/19 21:37:15;;;;;;;16.65;7.97;;;;;;;19.62;48.35;96877.22;10361538;28;20435;-73
2023/03/19 21:42:36;;;;;;;14.27;7.88;;;;;;;19.64;48.24;96875.00;10375961;28;20050;-76
2023/03/19 21:48:29;;;;;;;17.38;8.23;;;;;;;19.64;48.38;96888.50;10362559;28;20054;-77
2023/03/19 21:53:49;;;;;;;14.43;8.30;;;;;;;19.64;48.33;96881.22;10347917;28;20042;-77
2023/03/19 21:59:13;;;;;;;13.88;7.85;;;;;;;19.65;48.18;96884.69;10374683;28;20042;-76
2023/03/19 22:04:33;;;;;;;16.90;8.27;;;;;;;19.65;48.25;96879.31;10375112;28;20042;-77
2023/03/19 22:09:52;;;;;;;12.07;7.68;;;;;;;19.64;48.33;96867.69;10346179;28;20073;-77
2023/03/19 22:15:18;;;;;;;13.00;7.53;;;;;;;19.66;48.29;96867.34;10359902;28;20049;-76
2023/03/19 22:20:38;;;;;;;12.55;7.55;;;;;;;19.65;48.00;96871.97;10373608;28;20101;-76
2023/03/19 22:25:57;;;;;;;12.02;6.70;;;;;;;19.65;47.86;96871.19;10369967;28;20051;-75
2023/03/19 22:31:17;;;;;;;10.88;6.85;;;;;;;19.64;48.06;96870.41;10359384;28;20046;-75
2023/03/19 22:36:36;;;;;;;10.52;6.50;;;;;;;19.64;47.86;96867.69;10373814;28;20042;-76
2023/03/19 22:41:56;;;;;;;10.38;6.28;;;;;;;19.63;47.86;96870.72;10359309;28;20041;-75
2023/03/19 22:47:18;;;;;;;10.70;6.75;;;;;;;19.62;47.84;96861.00;10372807;28;20054;-76
2023/03/19 22:52:38;;;;;;;9.93;6.53;;;;;;;19.62;47.79;96863.72;10372605;28;20076;-75
2023/03/19 22:57:57;;;;;;;10.68;6.43;;;;;;;19.61;47.76;96860.22;10372581;28;20042;-76
2023/03/19 23:03:23;;;;;;;11.23;6.32;;;;;;;19.61;47.70;96857.53;10344945;28;20049;-75
2023/03/19 23:08:43;;;;;;;10.63;6.47;;;;;;;19.60;47.77;96863.25;10373145;28;20104;-76
2023/03/19 23:14:02;;;;;;;9.15;6.07;;;;;;;19.60;47.58;96860.53;10358526;28;20096;-75
2023/03/19 23:19:26;;;;;;;10.77;6.32;;;;;;;19.58;47.36;96860.84;10358396;28;20038;-76
2023/03/19 23:24:49;;;;;;;10.75;6.40;;;;;;;19.58;47.73;96871.66;10380237;28;20061;-75
2023/03/19 23:30:30;;;;;;;9.05;5.45;;;;;;;19.56;47.68;96866.59;10380714;28;20045;-75
2023/03/19 23:35:50;;;;;;;8.80;5.43;;;;;;;19.56;47.54;96866.59;10379990;28;20049;-75
2023/03/19 23:41:21;;;;;;;9.20;5.95;;;;;;;19.58;47.52;96876.28;10366406;28;20041;-76
2023/03/19 23:46:42;;;;;;;8.70;5.82;;;;;;;19.55;47.63;96870.41;10394422;28;20042;-76
2023/03/19 23:52:03;;;;;;;8.70;5.68;;;;;;;19.55;47.48;96864.22;10379402;28;20046;-76
2023/03/19 23:57:24;;;;;;;8.68;5.57;;;;;;;19.54;47.55;96876.13;10379487;28;20406;-75
